createdAt,value
2019-01-11T00:00:05.873Z,4.90
2019-01-11T00:01:05.957Z,4.80
2019-01-11T00:02:05.865Z,4.20
2019-01-11T00:03:05.914Z,4.80
2019-01-11T00:04:05.842Z,4.40
2019-01-11T00:05:05.846Z,4.50
2019-01-11T00:06:05.813Z,4.60
2019-01-11T00:07:05.811Z,4.80
2019-01-11T00:08:05.823Z,4.30
2019-01-11T00:09:05.818Z,4.80
2019-01-11T00:10:05.772Z,5.60
2019-01-11T00:11:05.767Z,5.40
2019-01-11T00:12:05.748Z,5.20
2019-01-11T00:13:05.738Z,5.10
2019-01-11T00:14:05.745Z,5.10
2019-01-11T00:15:05.730Z,5.10
2019-01-11T00:16:05.736Z,5.50
2019-01-11T00:17:05.701Z,4.50
2019-01-11T00:18:05.690Z,4.80
2019-01-11T00:19:07.188Z,5.00
2019-01-11T00:20:05.670Z,5.90
2019-01-11T00:21:05.653Z,5.10
2019-01-11T00:22:05.647Z,5.00
2019-01-11T00:23:05.632Z,5.10
2019-01-11T00:24:05.626Z,5.40
2019-01-11T00:25:05.715Z,5.40
2019-01-11T00:26:05.604Z,5.00
2019-01-11T00:27:05.590Z,4.40
2019-01-11T00:28:05.625Z,5.10
2019-01-11T00:29:05.569Z,5.20
2019-01-11T00:30:05.579Z,5.00
2019-01-11T00:31:05.549Z,5.00
2019-01-11T00:32:05.539Z,5.00
2019-01-11T00:33:05.562Z,5.50
2019-01-11T00:34:05.517Z,5.10
2019-01-11T00:35:05.506Z,5.40
2019-01-11T00:36:05.521Z,5.10
2019-01-11T00:37:05.486Z,14.30
2019-01-11T00:38:05.493Z,5.20
2019-01-11T00:39:05.466Z,5.50
2019-01-11T00:40:05.458Z,6.80
2019-01-11T00:41:05.461Z,7.80
2019-01-11T00:42:05.434Z,6.80
2019-01-11T00:43:05.474Z,8.70
2019-01-11T00:44:05.459Z,6.60
2019-01-11T00:45:05.443Z,5.40
2019-01-11T00:46:05.473Z,6.20
2019-01-11T00:47:05.387Z,5.70
2019-01-11T00:48:05.370Z,5.20
2019-01-11T00:49:05.397Z,5.80
2019-01-11T00:50:05.374Z,6.20
2019-01-11T00:51:05.347Z,6.10
2019-01-11T00:52:05.353Z,6.60
2019-01-11T00:53:05.331Z,5.90
2019-01-11T00:54:05.312Z,5.80
2019-01-11T00:55:06.071Z,6.70
2019-01-11T00:56:05.289Z,6.20
2019-01-11T00:57:05.296Z,6.00
2019-01-11T00:58:05.267Z,6.30
2019-01-11T00:59:05.269Z,6.20
2019-01-11T01:00:05.252Z,6.40
2019-01-11T01:01:05.246Z,6.20
2019-01-11T01:02:05.251Z,6.40
2019-01-11T01:03:05.214Z,6.40
2019-01-11T01:04:05.201Z,6.90
2019-01-11T01:05:05.199Z,6.40
2019-01-11T01:06:05.196Z,6.60
2019-01-11T01:07:05.217Z,7.00
2019-01-11T01:08:05.167Z,7.00
2019-01-11T01:09:05.159Z,6.60
2019-01-11T01:10:05.140Z,6.70
2019-01-11T01:11:05.141Z,6.50
2019-01-11T01:12:05.123Z,7.30
2019-01-11T01:13:05.138Z,6.20
2019-01-11T01:14:05.100Z,6.30
2019-01-11T01:15:05.103Z,7.10
2019-01-11T01:16:05.073Z,7.20
2019-01-11T01:17:05.066Z,7.20
2019-01-11T01:18:05.087Z,7.10
2019-01-11T01:19:05.079Z,6.80
2019-01-11T01:20:05.044Z,7.20
2019-01-11T01:21:05.032Z,7.40
2019-01-11T01:22:05.013Z,7.60
2019-01-11T01:23:05.042Z,7.10
2019-01-11T01:24:05.006Z,7.60
2019-01-11T01:25:04.979Z,6.90
2019-01-11T01:26:05.013Z,8.20
2019-01-11T01:27:04.959Z,7.50
2019-01-11T01:28:04.964Z,7.50
2019-01-11T01:29:04.973Z,7.80
2019-01-11T01:30:04.940Z,7.40
2019-01-11T01:31:04.959Z,7.70
2019-01-11T01:32:04.911Z,7.90
2019-01-11T01:33:04.899Z,8.20
2019-01-11T01:34:04.957Z,7.60
2019-01-11T01:35:04.895Z,8.60
2019-01-11T01:36:04.910Z,8.10
2019-01-11T01:37:04.880Z,8.40
2019-01-11T01:38:04.854Z,8.30
2019-01-11T01:39:04.866Z,8.80
2019-01-11T01:40:04.832Z,8.50
2019-01-11T01:41:04.822Z,9.00
2019-01-11T01:42:04.811Z,8.50
2019-01-11T01:43:04.798Z,8.10
2019-01-11T01:44:04.782Z,8.00
2019-01-11T01:45:05.424Z,8.30
2019-01-11T01:46:04.780Z,8.00
2019-01-11T01:47:04.773Z,8.80
2019-01-11T01:48:04.765Z,8.80
2019-01-11T01:49:04.780Z,8.90
2019-01-11T01:50:04.821Z,9.50
2019-01-11T01:51:04.714Z,9.10
2019-01-11T01:52:04.728Z,9.40
2019-01-11T01:53:04.698Z,8.80
2019-01-11T01:54:04.681Z,9.20
2019-01-11T01:55:04.668Z,9.00
2019-01-11T01:56:04.686Z,9.10
2019-01-11T01:57:04.648Z,9.90
2019-01-11T01:58:04.640Z,9.30
2019-01-11T01:59:04.626Z,9.50
2019-01-11T02:00:04.620Z,10.00
2019-01-11T02:01:04.673Z,10.20
2019-01-11T02:02:04.628Z,9.20
2019-01-11T02:03:04.588Z,10.60
2019-01-11T02:04:04.604Z,10.50
2019-01-11T02:05:04.586Z,9.40
2019-01-11T02:06:04.599Z,9.60
2019-01-11T02:07:04.556Z,10.20
2019-01-11T02:08:04.565Z,9.40
2019-01-11T02:09:04.545Z,10.70
2019-01-11T02:10:04.535Z,9.60
2019-01-11T02:11:04.607Z,10.90
2019-01-11T02:12:04.525Z,10.20
2019-01-11T02:13:04.540Z,10.40
2019-01-11T02:14:04.521Z,11.50
2019-01-11T02:15:04.489Z,11.20
2019-01-11T02:16:04.470Z,12.40
2019-01-11T02:17:04.520Z,11.20
2019-01-11T02:18:04.449Z,10.70
2019-01-11T02:19:04.477Z,10.70
2019-01-11T02:20:04.439Z,10.80
2019-01-11T02:21:04.446Z,10.90
2019-01-11T02:22:04.411Z,12.30
2019-01-11T02:23:04.390Z,11.60
2019-01-11T02:24:04.404Z,12.30
2019-01-11T02:25:04.404Z,11.40
2019-01-11T02:26:04.377Z,11.80
2019-01-11T02:27:04.463Z,11.40
2019-01-11T02:28:04.357Z,12.00
2019-01-11T02:29:04.415Z,12.90
2019-01-11T02:30:04.338Z,12.70
2019-01-11T02:31:04.326Z,12.90
2019-01-11T02:32:04.308Z,13.50
2019-01-11T02:33:04.338Z,13.60
2019-01-11T02:34:04.275Z,12.50
2019-01-11T02:35:04.278Z,13.80
2019-01-11T02:36:04.244Z,13.30
2019-01-11T02:37:04.260Z,12.80
2019-01-11T02:38:04.308Z,14.50
2019-01-11T02:39:04.250Z,13.50
2019-01-11T02:40:04.242Z,14.00
2019-01-11T02:41:04.212Z,13.90
2019-01-11T02:42:04.217Z,15.10
2019-01-11T02:43:04.262Z,14.30
2019-01-11T02:44:04.186Z,15.10
2019-01-11T02:45:04.198Z,14.90
2019-01-11T02:46:04.152Z,15.00
2019-01-11T02:47:04.125Z,14.30
2019-01-11T02:48:04.212Z,15.40
2019-01-11T02:49:04.138Z,15.60
2019-01-11T02:50:04.209Z,15.20
2019-01-11T02:51:04.100Z,13.90
2019-01-11T02:52:04.077Z,15.10
2019-01-11T02:53:04.094Z,15.10
2019-01-11T02:54:04.063Z,14.90
2019-01-11T02:55:04.058Z,16.20
2019-01-11T02:56:04.056Z,14.40
2019-01-11T02:57:04.050Z,14.60
2019-01-11T02:58:04.019Z,16.00
2019-01-11T02:59:04.050Z,16.00
2019-01-11T03:00:04.038Z,16.00
2019-01-11T03:01:04.006Z,15.50
2019-01-11T03:02:03.980Z,16.20
2019-01-11T03:03:03.972Z,16.60
2019-01-11T03:04:04.015Z,16.30
2019-01-11T03:05:04.032Z,16.30
2019-01-11T03:06:03.945Z,16.40
2019-01-11T03:07:03.949Z,16.80
2019-01-11T03:08:03.915Z,15.80
2019-01-11T03:09:03.917Z,13.80
2019-01-11T03:10:03.909Z,16.60
2019-01-11T03:11:03.908Z,17.60
2019-01-11T03:12:03.886Z,17.80
2019-01-11T03:13:03.892Z,17.40
2019-01-11T03:14:03.858Z,18.00
2019-01-11T03:15:03.923Z,17.70
2019-01-11T03:16:03.813Z,18.00
2019-01-11T03:17:03.815Z,17.70
2019-01-11T03:18:03.826Z,19.00
2019-01-11T03:19:03.827Z,17.50
2019-01-11T03:20:03.793Z,19.40
2019-01-11T03:21:03.918Z,18.70
2019-01-11T03:22:03.785Z,19.60
2019-01-11T03:23:03.793Z,18.90
2019-01-11T03:24:03.775Z,19.30
2019-01-11T03:25:03.756Z,17.80
2019-01-11T03:26:03.797Z,18.70
2019-01-11T03:27:03.744Z,18.60
2019-01-11T03:28:03.688Z,19.50
2019-01-11T03:29:03.711Z,19.40
2019-01-11T03:30:03.704Z,17.30
2019-01-11T03:31:03.754Z,19.60
2019-01-11T03:32:03.689Z,18.80
2019-01-11T03:33:03.656Z,20.40
2019-01-11T03:34:03.661Z,17.10
2019-01-11T03:35:03.635Z,19.80
2019-01-11T03:36:03.685Z,20.40
2019-01-11T03:37:03.638Z,20.60
2019-01-11T03:38:03.619Z,20.70
2019-01-11T03:39:03.623Z,21.40
2019-01-11T03:40:03.608Z,19.80
2019-01-11T03:41:03.622Z,19.90
2019-01-11T03:42:03.580Z,20.80
2019-01-11T03:43:03.546Z,19.70
2019-01-11T03:44:03.532Z,19.30
2019-01-11T03:45:03.511Z,19.70
2019-01-11T03:46:03.564Z,20.30
2019-01-11T03:47:03.508Z,19.30
2019-01-11T03:48:03.510Z,18.00
2019-01-11T03:49:03.513Z,19.30
2019-01-11T03:50:03.464Z,21.20
2019-01-11T03:51:03.487Z,21.90
2019-01-11T03:52:03.442Z,19.80
2019-01-11T03:53:03.435Z,21.20
2019-01-11T03:54:03.430Z,18.90
2019-01-11T03:55:03.448Z,21.60
2019-01-11T03:56:03.471Z,21.70
2019-01-11T03:57:03.398Z,21.40
2019-01-11T03:58:03.382Z,20.90
2019-01-11T03:59:03.398Z,21.40
2019-01-11T04:00:03.400Z,21.80
2019-01-11T04:01:03.420Z,22.20
2019-01-11T04:02:03.410Z,20.80
2019-01-11T04:03:03.341Z,20.40
2019-01-11T04:04:03.314Z,21.00
2019-01-11T04:05:03.340Z,21.30
2019-01-11T04:06:03.325Z,21.90
2019-01-11T04:07:03.335Z,21.70
2019-01-11T04:08:03.290Z,20.70
2019-01-11T04:09:03.266Z,19.90
2019-01-11T04:10:03.286Z,20.30
2019-01-11T04:11:03.281Z,20.70
2019-01-11T04:12:03.281Z,20.20
2019-01-11T04:13:03.249Z,21.50
2019-01-11T04:14:03.206Z,21.30
2019-01-11T04:15:03.204Z,20.80
2019-01-11T04:16:03.203Z,21.10
2019-01-11T04:17:03.238Z,19.80
2019-01-11T04:18:03.210Z,18.00
2019-01-11T04:19:03.160Z,20.00
2019-01-11T04:20:03.168Z,20.10
2019-01-11T04:21:03.166Z,19.70
2019-01-11T04:22:03.190Z,21.10
2019-01-11T04:23:03.154Z,17.40
2019-01-11T04:24:03.151Z,19.50
2019-01-11T04:25:03.112Z,19.50
2019-01-11T04:26:03.094Z,20.00
2019-01-11T04:27:03.192Z,19.00
2019-01-11T04:28:04.143Z,19.80
2019-01-11T04:29:03.087Z,19.00
2019-01-11T04:30:03.096Z,18.70
2019-01-11T04:31:03.034Z,19.70
2019-01-11T04:32:03.024Z,19.80
2019-01-11T04:33:03.043Z,20.50
2019-01-11T04:34:03.030Z,19.30
2019-01-11T04:35:03.022Z,19.80
2019-01-11T04:36:02.981Z,20.60
2019-01-11T04:37:02.983Z,21.20
2019-01-11T04:38:03.020Z,21.30
2019-01-11T04:39:02.970Z,21.40
2019-01-11T04:40:02.957Z,23.30
2019-01-11T04:41:02.950Z,14.60
2019-01-11T04:42:02.924Z,21.30
2019-01-11T04:43:02.938Z,23.30
2019-01-11T04:44:02.929Z,18.30
2019-01-11T04:45:02.893Z,18.70
2019-01-11T04:46:02.901Z,22.10
2019-01-11T04:47:02.868Z,21.50
2019-01-11T04:48:02.922Z,21.80
2019-01-11T04:49:02.873Z,21.80
2019-01-11T04:50:09.193Z,19.60
2019-01-11T04:51:03.842Z,20.10
2019-01-11T04:52:02.858Z,22.50
2019-01-11T04:53:02.827Z,21.80
2019-01-11T04:54:02.792Z,19.70
2019-01-11T04:55:02.825Z,19.10
2019-01-11T04:56:02.788Z,19.60
2019-01-11T04:57:02.794Z,21.80
2019-01-11T04:58:02.821Z,21.90
2019-01-11T04:59:02.772Z,21.60
2019-01-11T05:00:02.758Z,18.80
2019-01-11T05:01:02.769Z,21.70
2019-01-11T05:02:02.719Z,22.10
2019-01-11T05:03:02.721Z,21.80
2019-01-11T05:04:02.715Z,20.00
2019-01-11T05:05:02.684Z,21.70
2019-01-11T05:06:02.679Z,20.40
2019-01-11T05:07:02.653Z,21.50
2019-01-11T05:08:02.655Z,22.90
2019-01-11T05:09:02.730Z,20.60
2019-01-11T05:10:02.626Z,22.70
2019-01-11T05:11:02.625Z,22.70
2019-01-11T05:12:02.653Z,22.60
2019-01-11T05:13:02.595Z,23.20
2019-01-11T05:14:02.651Z,22.20
2019-01-11T05:15:02.573Z,21.10
2019-01-11T05:16:02.568Z,20.80
2019-01-11T05:17:02.562Z,21.20
2019-01-11T05:18:02.554Z,15.40
2019-01-11T05:19:02.624Z,17.70
2019-01-11T05:20:02.550Z,20.10
2019-01-11T05:21:02.514Z,21.40
2019-01-11T05:22:02.499Z,21.00
2019-01-11T05:23:02.503Z,19.20
2019-01-11T05:24:02.522Z,21.30
2019-01-11T05:25:02.533Z,19.00
2019-01-11T05:26:02.467Z,21.30
2019-01-11T05:27:02.481Z,21.40
2019-01-11T05:28:02.455Z,21.30
2019-01-11T05:29:02.458Z,20.70
2019-01-11T05:30:02.524Z,21.00
2019-01-11T05:31:02.423Z,21.10
2019-01-11T05:32:02.390Z,21.60
2019-01-11T05:33:02.381Z,24.10
2019-01-11T05:34:02.398Z,20.10
2019-01-11T05:35:02.434Z,21.60
2019-01-11T05:36:02.406Z,20.60
2019-01-11T05:37:02.363Z,22.20
2019-01-11T05:38:02.336Z,17.60
2019-01-11T05:39:02.331Z,16.30
2019-01-11T05:40:02.420Z,20.20
2019-01-11T05:41:02.348Z,20.80
2019-01-11T05:42:02.318Z,20.70
2019-01-11T05:43:02.279Z,20.00
2019-01-11T05:44:02.284Z,20.10
2019-01-11T05:45:02.346Z,19.50
2019-01-11T05:46:02.279Z,19.60
2019-01-11T05:47:02.278Z,19.40
2019-01-11T05:48:02.238Z,16.50
2019-01-11T05:49:02.215Z,18.40
2019-01-11T05:50:02.243Z,18.40
2019-01-11T05:51:02.193Z,19.30
2019-01-11T05:52:02.196Z,19.00
2019-01-11T05:53:02.179Z,20.40
2019-01-11T05:54:02.166Z,14.20
2019-01-11T05:55:02.180Z,15.40
2019-01-11T05:56:02.146Z,16.10
2019-01-11T05:57:02.127Z,18.90
2019-01-11T05:58:02.137Z,17.10
2019-01-11T05:59:02.113Z,15.30
2019-01-11T06:00:02.110Z,18.50
2019-01-11T06:01:02.112Z,19.00
2019-01-11T06:02:02.080Z,19.50
2019-01-11T06:03:02.079Z,19.60
2019-01-11T06:04:02.067Z,15.00
2019-01-11T06:05:02.105Z,16.30
2019-01-11T06:06:02.054Z,15.60
2019-01-11T06:07:02.026Z,17.60
2019-01-11T06:08:02.024Z,15.40
2019-01-11T06:09:02.017Z,18.10
2019-01-11T06:10:03.084Z,18.50
2019-01-11T06:11:02.015Z,18.60
2019-01-11T06:12:01.978Z,18.50
2019-01-11T06:13:01.961Z,19.50
2019-01-11T06:14:01.955Z,19.60
2019-01-11T06:15:01.949Z,19.50
2019-01-11T06:16:01.961Z,19.10
2019-01-11T06:17:01.919Z,20.00
2019-01-11T06:18:01.909Z,18.10
2019-01-11T06:19:01.903Z,17.30
2019-01-11T06:20:01.902Z,18.70
2019-01-11T06:21:01.903Z,17.80
2019-01-11T06:22:01.873Z,16.70
2019-01-11T06:23:01.863Z,18.60
2019-01-11T06:24:01.847Z,16.10
2019-01-11T06:25:01.848Z,18.50
2019-01-11T06:26:01.834Z,17.20
2019-01-11T06:27:01.859Z,14.40
2019-01-11T06:28:01.848Z,17.40
2019-01-11T06:29:01.808Z,18.70
2019-01-11T06:30:01.788Z,17.10
2019-01-11T06:31:01.793Z,17.50
2019-01-11T06:32:01.779Z,16.80
2019-01-11T06:33:01.764Z,18.50
2019-01-11T06:34:01.750Z,18.50
2019-01-11T06:35:01.733Z,17.60
2019-01-11T06:36:01.732Z,16.90
2019-01-11T06:37:01.740Z,14.90
2019-01-11T06:38:01.704Z,13.90
2019-01-11T06:39:01.701Z,16.20
2019-01-11T06:40:01.690Z,17.00
2019-01-11T06:41:01.673Z,18.60
2019-01-11T06:42:01.695Z,14.10
2019-01-11T06:43:03.681Z,17.90
2019-01-11T06:44:01.643Z,14.70
2019-01-11T06:45:01.644Z,19.90
2019-01-11T06:46:01.621Z,18.90
2019-01-11T06:47:01.657Z,17.50
2019-01-11T06:48:01.595Z,18.50
2019-01-11T06:49:01.586Z,18.20
2019-01-11T06:50:01.588Z,15.00
2019-01-11T06:51:01.584Z,18.70
2019-01-11T06:52:01.555Z,18.20
2019-01-11T06:53:01.566Z,18.70
2019-01-11T06:54:01.539Z,16.80
2019-01-11T06:55:01.529Z,16.30
2019-01-11T06:56:01.520Z,16.40
2019-01-11T06:57:01.505Z,17.50
2019-01-11T06:58:01.512Z,19.90
2019-01-11T06:59:01.507Z,17.90
2019-01-11T07:00:01.510Z,16.00
2019-01-11T07:01:01.483Z,17.10
2019-01-11T07:02:01.489Z,15.90
2019-01-11T07:03:01.511Z,18.50
2019-01-11T07:04:01.459Z,17.20
2019-01-11T07:05:01.448Z,17.50
2019-01-11T07:06:01.417Z,15.40
2019-01-11T07:07:01.397Z,17.80
2019-01-11T07:08:01.411Z,16.40
2019-01-11T07:09:01.409Z,18.00
2019-01-11T07:10:01.417Z,17.30
2019-01-11T07:11:01.383Z,18.00
2019-01-11T07:12:01.349Z,18.00
2019-01-11T07:13:01.343Z,17.40
2019-01-11T07:14:01.437Z,17.30
2019-01-11T07:15:01.337Z,14.40
2019-01-11T07:16:01.354Z,15.50
2019-01-11T07:17:01.317Z,14.60
2019-01-11T07:18:01.281Z,14.70
2019-01-11T07:19:01.312Z,17.20
2019-01-11T07:20:05.554Z,17.40
2019-01-11T07:21:10.537Z,16.20
2019-01-11T07:22:01.247Z,13.50
2019-01-11T07:23:01.233Z,12.80
2019-01-11T07:24:01.341Z,17.30
2019-01-11T07:25:01.243Z,8.50
2019-01-11T07:26:01.237Z,13.90
2019-01-11T07:27:01.189Z,16.90
2019-01-11T07:28:01.175Z,16.80
2019-01-11T07:29:01.311Z,16.90
2019-01-11T07:30:01.217Z,17.10
2019-01-11T07:32:02.343Z,17.80
2019-01-11T07:33:01.175Z,17.30
2019-01-11T07:34:01.277Z,14.10
2019-01-11T07:35:01.118Z,16.40
2019-01-11T07:36:01.099Z,16.70
2019-01-11T07:37:01.096Z,16.40
2019-01-11T07:38:01.077Z,15.50
2019-01-11T07:39:01.115Z,14.00
2019-01-11T07:40:01.150Z,17.30
2019-01-11T07:41:01.044Z,14.90
2019-01-11T07:42:01.048Z,15.00
2019-01-11T07:43:01.051Z,16.20
2019-01-11T07:44:01.040Z,15.60
2019-01-11T07:45:01.068Z,13.30
2019-01-11T07:46:01.010Z,10.30
2019-01-11T07:47:00.981Z,14.90
2019-01-11T07:48:00.975Z,13.90
2019-01-11T07:49:00.994Z,15.40
2019-01-11T07:50:00.983Z,13.00
2019-01-11T07:51:00.973Z,14.60
2019-01-11T07:52:00.929Z,12.50
2019-01-11T07:53:00.925Z,12.40
2019-01-11T07:54:00.923Z,13.70
2019-01-11T07:55:00.963Z,13.20
2019-01-11T07:56:00.916Z,13.60
2019-01-11T07:57:00.873Z,11.30
2019-01-11T07:58:00.861Z,12.50
2019-01-11T07:59:00.863Z,12.90
2019-01-11T08:00:00.877Z,14.90
2019-01-11T08:01:00.859Z,13.60
2019-01-11T08:02:00.839Z,12.80
2019-01-11T08:03:00.809Z,12.80
2019-01-11T08:04:00.813Z,13.20
2019-01-11T08:05:00.808Z,12.80
2019-01-11T08:06:00.799Z,12.50
2019-01-11T08:07:00.774Z,12.70
2019-01-11T08:08:00.763Z,12.10
2019-01-11T08:09:00.747Z,13.30
2019-01-11T08:10:00.742Z,12.20
2019-01-11T08:11:00.769Z,11.40
2019-01-11T08:12:00.733Z,12.10
2019-01-11T08:13:00.730Z,11.60
2019-01-11T08:14:00.704Z,11.50
2019-01-11T08:15:00.688Z,11.50
2019-01-11T08:16:00.702Z,10.90
2019-01-11T08:17:00.670Z,12.10
2019-01-11T08:18:00.664Z,8.30
2019-01-11T08:19:00.656Z,11.90
2019-01-11T08:20:00.656Z,9.90
2019-01-11T08:21:00.669Z,9.80
2019-01-11T08:22:00.616Z,10.90
2019-01-11T08:23:00.602Z,9.90
2019-01-11T08:24:00.596Z,10.40
2019-01-11T08:25:00.584Z,11.00
2019-01-11T08:26:00.592Z,11.00
2019-01-11T08:27:00.564Z,12.00
2019-01-11T08:28:00.561Z,11.20
2019-01-11T08:29:00.568Z,10.70
2019-01-11T08:30:00.565Z,10.50
2019-01-11T08:31:00.562Z,10.60
2019-01-11T08:32:00.535Z,10.90
2019-01-11T08:33:00.507Z,10.70
2019-01-11T08:34:00.484Z,10.20
2019-01-11T08:35:00.480Z,9.80
2019-01-11T08:36:00.512Z,10.20
2019-01-11T08:37:00.458Z,10.10
2019-01-11T08:38:00.461Z,9.40
2019-01-11T08:39:00.453Z,7.50
2019-01-11T08:40:00.489Z,8.00
2019-01-11T08:41:00.421Z,7.40
2019-01-11T08:42:00.430Z,8.60
2019-01-11T08:43:00.399Z,8.60
2019-01-11T08:44:00.385Z,10.60
2019-01-11T08:45:00.372Z,10.80
2019-01-11T08:46:00.365Z,9.70
2019-01-11T08:47:00.371Z,6.60
2019-01-11T08:48:00.341Z,8.40
2019-01-11T08:49:00.342Z,5.40
2019-01-11T08:50:00.331Z,9.60
2019-01-11T08:51:02.842Z,10.50
2019-01-11T08:52:00.331Z,10.30
2019-01-11T08:53:00.289Z,9.70
2019-01-11T08:54:00.279Z,8.50
2019-01-11T08:55:00.276Z,9.60
2019-01-11T08:56:00.260Z,10.40
2019-01-11T08:57:00.276Z,10.00
2019-01-11T08:58:00.239Z,11.50
2019-01-11T08:59:00.236Z,11.40
2019-01-11T09:00:00.254Z,11.30
2019-01-11T09:01:00.211Z,10.50
2019-01-11T09:02:00.235Z,7.80
2019-01-11T09:03:00.178Z,7.60
2019-01-11T09:04:00.174Z,11.60
2019-01-11T09:05:00.200Z,6.90
2019-01-11T09:06:00.159Z,10.40
2019-01-11T09:07:00.157Z,10.20
2019-01-11T09:08:00.153Z,8.10
2019-01-11T09:09:00.130Z,11.90
2019-01-11T09:10:00.203Z,9.30
2019-01-11T09:11:00.102Z,8.40
2019-01-11T09:12:00.095Z,11.90
2019-01-11T09:13:00.113Z,12.90
2019-01-11T09:14:00.083Z,11.90
2019-01-11T09:15:00.101Z,11.30
2019-01-11T09:16:00.054Z,11.80
2019-01-11T09:17:00.033Z,11.90
2019-01-11T09:18:00.100Z,9.30
2019-01-11T09:19:00.018Z,11.80
2019-01-11T09:20:00.027Z,11.80
2019-01-11T09:20:59.999Z,13.00
2019-01-11T09:21:59.991Z,9.30
2019-01-11T09:22:59.985Z,9.00
2019-01-11T09:23:59.964Z,9.90
2019-01-11T09:24:59.956Z,9.70
2019-01-11T09:25:59.943Z,11.40
2019-01-11T09:26:59.934Z,11.80
2019-01-11T09:27:59.934Z,10.60
2019-01-11T09:28:59.924Z,12.80
2019-01-11T09:29:59.901Z,12.90
2019-01-11T09:30:59.892Z,13.20
2019-01-11T09:31:59.879Z,5.20
2019-01-11T09:32:59.902Z,10.00
2019-01-11T09:33:59.856Z,10.10
2019-01-11T09:34:59.847Z,10.70
2019-01-11T09:35:59.839Z,11.20
2019-01-11T09:36:59.844Z,13.10
2019-01-11T09:37:59.816Z,9.90
2019-01-11T09:38:59.842Z,7.70
2019-01-11T09:39:59.790Z,11.10
2019-01-11T09:40:59.780Z,10.40
2019-01-11T09:41:59.774Z,11.60
2019-01-11T09:42:59.760Z,13.10
2019-01-11T09:43:59.766Z,12.50
2019-01-11T09:44:59.765Z,9.30
2019-01-11T09:45:59.767Z,10.30
2019-01-11T09:46:59.720Z,12.00
2019-01-11T09:47:59.710Z,12.30
2019-01-11T09:48:59.730Z,12.50
2019-01-11T09:49:59.698Z,13.50
2019-01-11T09:50:59.685Z,13.30
2019-01-11T09:51:59.672Z,13.70
2019-01-11T09:52:59.654Z,12.50
2019-01-11T09:53:59.676Z,13.00
2019-01-11T09:54:59.648Z,8.10
2019-01-11T09:55:59.634Z,13.20
2019-01-11T09:56:59.618Z,13.90
2019-01-11T09:57:59.611Z,13.30
2019-01-11T09:58:59.617Z,13.80
2019-01-11T09:59:59.584Z,13.30
2019-01-11T10:00:59.617Z,11.90
2019-01-11T10:01:59.561Z,12.20
2019-01-11T10:02:59.552Z,12.50
2019-01-11T10:03:59.574Z,13.10
2019-01-11T10:04:59.530Z,13.60
2019-01-11T10:05:59.526Z,13.60
2019-01-11T10:06:59.519Z,13.60
2019-01-11T10:07:59.516Z,10.50
2019-01-11T10:08:59.489Z,15.00
2019-01-11T10:09:59.520Z,14.70
2019-01-11T10:10:59.468Z,15.00
2019-01-11T10:11:59.456Z,15.90
2019-01-11T10:12:59.456Z,15.90
2019-01-11T10:13:59.474Z,15.60
2019-01-11T10:14:59.446Z,14.70
2019-01-11T10:15:59.420Z,16.20
2019-01-11T10:16:59.412Z,16.80
2019-01-11T10:17:59.397Z,16.30
2019-01-11T10:18:59.386Z,15.40
2019-01-11T10:19:59.400Z,14.80
2019-01-11T10:20:59.363Z,11.40
2019-01-11T10:21:59.358Z,13.20
2019-01-11T10:22:59.344Z,17.20
2019-01-11T10:23:59.333Z,17.10
2019-01-11T10:24:59.372Z,17.50
2019-01-11T10:25:59.319Z,17.00
2019-01-11T10:26:59.307Z,17.40
2019-01-11T10:27:59.295Z,16.20
2019-01-11T10:28:59.283Z,17.10
2019-01-11T10:29:59.298Z,17.20
2019-01-11T10:31:00.751Z,16.60
2019-01-11T10:31:59.250Z,17.60
2019-01-11T10:32:59.236Z,17.60
2019-01-11T10:33:59.226Z,16.50
2019-01-11T10:34:59.251Z,18.20
2019-01-11T10:35:59.205Z,17.80
2019-01-11T10:36:59.214Z,17.60
2019-01-11T10:37:59.190Z,17.60
2019-01-11T10:38:59.180Z,18.20
2019-01-11T10:39:59.173Z,16.60
2019-01-11T10:40:59.171Z,15.40
2019-01-11T10:41:59.154Z,18.70
2019-01-11T10:42:59.141Z,18.50
2019-01-11T10:43:59.121Z,18.40
2019-01-11T10:44:59.114Z,18.10
2019-01-11T10:45:59.113Z,18.20
2019-01-11T10:46:59.094Z,15.90
2019-01-11T10:47:59.082Z,17.70
2019-01-11T10:48:59.077Z,18.60
2019-01-11T10:49:59.065Z,16.50
2019-01-11T10:50:59.093Z,18.40
2019-01-11T10:51:59.044Z,18.70
2019-01-11T10:52:59.033Z,19.20
2019-01-11T10:53:59.020Z,19.20
2019-01-11T10:54:59.020Z,19.60
2019-01-11T10:55:59.023Z,18.50
2019-01-11T10:56:58.987Z,17.10
2019-01-11T10:57:58.979Z,17.50
2019-01-11T10:58:58.968Z,16.20
2019-01-11T10:59:58.957Z,16.30
2019-01-11T11:00:58.965Z,16.40
2019-01-11T11:01:58.939Z,16.30
2019-01-11T11:02:58.930Z,16.60
2019-01-11T11:03:58.914Z,15.00
2019-01-11T11:04:58.902Z,10.90
2019-01-11T11:05:58.911Z,15.50
2019-01-11T11:06:58.887Z,16.80
2019-01-11T11:07:58.892Z,14.70
2019-01-11T11:08:58.868Z,14.60
2019-01-11T11:09:58.865Z,13.90
2019-01-11T11:10:58.874Z,13.30
2019-01-11T11:11:58.838Z,13.20
2019-01-11T11:12:58.822Z,15.20
2019-01-11T11:13:58.812Z,13.10
2019-01-11T11:14:58.798Z,11.70
2019-01-11T11:15:58.823Z,12.90
2019-01-11T11:16:58.778Z,14.10
2019-01-11T11:17:58.773Z,9.30
2019-01-11T11:18:58.761Z,13.10
2019-01-11T11:19:58.747Z,13.10
2019-01-11T11:20:58.735Z,12.40
2019-01-11T11:21:58.773Z,12.40
2019-01-11T11:22:58.725Z,13.40
2019-01-11T11:23:58.728Z,12.30
2019-01-11T11:24:58.780Z,13.10
2019-01-11T11:25:58.687Z,12.50
2019-01-11T11:26:58.712Z,10.70
2019-01-11T11:27:58.663Z,8.20
2019-01-11T11:28:58.664Z,13.10
2019-01-11T11:29:58.648Z,13.00
2019-01-11T11:30:58.639Z,13.40
2019-01-11T11:31:58.644Z,13.50
2019-01-11T11:32:58.616Z,14.30
2019-01-11T11:33:58.600Z,12.80
2019-01-11T11:34:58.595Z,13.70
2019-01-11T11:35:58.581Z,12.40
2019-01-11T11:36:58.598Z,13.90
2019-01-11T11:37:58.558Z,11.60
2019-01-11T11:38:58.550Z,13.00
2019-01-11T11:39:58.546Z,12.70
2019-01-11T11:40:58.540Z,12.50
2019-01-11T11:41:58.548Z,11.40
2019-01-11T11:42:58.505Z,12.10
2019-01-11T11:43:58.502Z,11.10
2019-01-11T11:44:58.502Z,11.70
2019-01-11T11:45:58.480Z,12.60
2019-01-11T11:46:58.543Z,12.40
2019-01-11T11:47:58.462Z,12.50
2019-01-11T11:48:58.448Z,13.10
2019-01-11T11:49:58.434Z,13.00
2019-01-11T11:50:58.426Z,10.90
2019-01-11T11:51:58.430Z,12.80
2019-01-11T11:52:58.468Z,10.80
2019-01-11T11:53:58.390Z,11.70
2019-01-11T11:54:58.383Z,11.90
2019-01-11T11:55:58.372Z,12.10
2019-01-11T11:56:58.360Z,12.40
2019-01-11T11:57:58.367Z,11.30
2019-01-11T11:58:58.358Z,6.70
2019-01-11T11:59:58.328Z,11.60
2019-01-11T12:00:58.327Z,12.00
2019-01-11T12:01:58.308Z,11.80
2019-01-11T12:02:58.396Z,7.60
2019-01-11T12:03:58.296Z,11.50
2019-01-11T12:04:58.273Z,12.40
2019-01-11T12:05:58.276Z,11.30
2019-01-11T12:06:58.257Z,10.60
2019-01-11T12:07:58.263Z,12.70
2019-01-11T12:08:58.258Z,11.50
2019-01-11T12:09:58.234Z,8.20
2019-01-11T12:10:58.224Z,9.30
2019-01-11T12:11:58.221Z,10.70
2019-01-11T12:12:58.260Z,11.00
2019-01-11T12:13:58.181Z,10.90
2019-01-11T12:14:58.168Z,10.10
2019-01-11T12:15:58.180Z,11.20
2019-01-11T12:16:58.149Z,9.00
2019-01-11T12:17:59.469Z,9.20
2019-01-11T12:18:58.148Z,9.80
2019-01-11T12:19:58.133Z,9.60
2019-01-11T12:20:58.105Z,7.90
2019-01-11T12:22:01.611Z,10.40
2019-01-11T12:22:58.090Z,9.90
2019-01-11T12:23:58.094Z,9.80
2019-01-11T12:24:58.064Z,10.90
2019-01-11T12:25:58.060Z,10.60
2019-01-11T12:26:58.045Z,12.60
2019-01-11T12:27:58.049Z,11.80
2019-01-11T12:28:58.053Z,10.50
2019-01-11T12:29:58.018Z,12.30
2019-01-11T12:30:58.008Z,10.80
2019-01-11T12:31:57.997Z,11.70
2019-01-11T12:32:57.986Z,10.90
2019-01-11T12:33:58.009Z,11.00
2019-01-11T12:34:57.963Z,12.10
2019-01-11T12:35:57.961Z,12.70
2019-01-11T12:36:57.943Z,11.70
2019-01-11T12:37:57.927Z,11.10
2019-01-11T12:38:57.937Z,10.00
2019-01-11T12:39:57.921Z,10.70
2019-01-11T12:40:57.900Z,11.10
2019-01-11T12:41:57.888Z,10.70
2019-01-11T12:42:57.879Z,10.20
2019-01-11T12:43:57.897Z,10.90
2019-01-11T12:44:57.863Z,10.70
2019-01-11T12:45:57.860Z,10.00
2019-01-11T12:46:57.832Z,10.20
2019-01-11T12:47:57.828Z,11.30
2019-01-11T12:48:57.823Z,11.10
2019-01-11T12:49:57.832Z,11.50
2019-01-11T12:50:57.799Z,11.70
2019-01-11T12:51:57.788Z,11.70
2019-01-11T12:52:57.769Z,12.00
2019-01-11T12:53:57.769Z,10.90
2019-01-11T12:54:57.768Z,11.90
2019-01-11T12:55:57.749Z,12.30
2019-01-11T12:56:57.737Z,11.70
2019-01-11T12:57:57.721Z,12.20
2019-01-11T12:58:57.713Z,11.80